sensor_id;sensor_type;location;lat;lon;timestamp;P1;durP1;ratioP1;P2;durP2;ratioP2
13048;SDS011;6591;51.446;5.404;2023-07-20T00:01:54;5.00;;;4.07;;
13048;SDS011;6591;51.446;5.404;2023-07-20T00:04:21;4.90;;;4.20;;
13048;SDS011;6591;51.446;5.404;2023-07-20T00:06:49;4.85;;;4.13;;
13048;SDS011;6591;51.446;5.404;2023-07-20T00:09:16;6.78;;;3.60;;
13048;SDS011;6591;51.446;5.404;2023-07-20T00:11:48;4.97;;;3.97;;
13048;SDS011;6591;51.446;5.404;2023-07-20T00:14:17;5.45;;;4.07;;
13048;SDS011;6591;51.446;5.404;2023-07-20T00:16:45;6.35;;;4.13;;
13048;SDS011;6591;51.446;5.404;2023-07-20T00:19:13;4.40;;;3.50;;
13048;SDS011;6591;51.446;5.404;2023-07-20T00:21:40;4.18;;;3.55;;
13048;SDS011;6591;51.446;5.404;2023-07-20T00:24:09;5.13;;;3.83;;
13048;SDS011;6591;51.446;5.404;2023-07-20T00:26:36;4.57;;;3.95;;
13048;SDS011;6591;51.446;5.404;2023-07-20T00:29:03;5.65;;;4.47;;
13048;SDS011;6591;51.446;5.404;2023-07-20T00:31:30;4.88;;;4.10;;
13048;SDS011;6591;51.446;5.404;2023-07-20T00:33:57;6.00;;;4.30;;
13048;SDS011;6591;51.446;5.404;2023-07-20T00:36:24;6.55;;;3.92;;
13048;SDS011;6591;51.446;5.404;2023-07-20T00:38:51;5.38;;;4.75;;
13048;SDS011;6591;51.446;5.404;2023-07-20T00:41:18;5.30;;;4.00;;
13048;SDS011;6591;51.446;5.404;2023-07-20T00:43:45;8.35;;;3.85;;
13048;SDS011;6591;51.446;5.404;2023-07-20T00:46:13;6.22;;;4.22;;
13048;SDS011;6591;51.446;5.404;2023-07-20T00:48:41;6.53;;;3.85;;
13048;SDS011;6591;51.446;5.404;2023-07-20T00:51:09;5.47;;;4.10;;
13048;SDS011;6591;51.446;5.404;2023-07-20T00:53:38;5.97;;;4.10;;
13048;SDS011;6591;51.446;5.404;2023-07-20T00:56:05;6.40;;;4.22;;
13048;SDS011;6591;51.446;5.404;2023-07-20T00:58:34;5.72;;;4.28;;
13048;SDS011;6591;51.446;5.404;2023-07-20T01:01:02;6.05;;;4.25;;
13048;SDS011;6591;51.446;5.404;2023-07-20T01:03:29;5.13;;;4.05;;
13048;SDS011;6591;51.446;5.404;2023-07-20T01:08:52;9.65;;;4.32;;
13048;SDS011;6591;51.446;5.404;2023-07-20T01:14:40;5.88;;;3.80;;
13048;SDS011;6591;51.446;5.404;2023-07-20T01:17:07;8.27;;;4.25;;
13048;SDS011;6591;51.446;5.404;2023-07-20T01:19:34;5.30;;;3.97;;
13048;SDS011;6591;51.446;5.404;2023-07-20T01:22:03;4.15;;;3.75;;
13048;SDS011;6591;51.446;5.404;2023-07-20T01:33:19;6.63;;;4.40;;
13048;SDS011;6591;51.446;5.404;2023-07-20T01:35:51;6.60;;;4.40;;
13048;SDS011;6591;51.446;5.404;2023-07-20T01:38:24;6.70;;;4.30;;
13048;SDS011;6591;51.446;5.404;2023-07-20T01:40:52;6.25;;;4.60;;
13048;SDS011;6591;51.446;5.404;2023-07-20T01:43:26;6.57;;;5.03;;
13048;SDS011;6591;51.446;5.404;2023-07-20T01:45:54;5.28;;;4.32;;
13048;SDS011;6591;51.446;5.404;2023-07-20T01:48:25;6.68;;;4.43;;
13048;SDS011;6591;51.446;5.404;2023-07-20T01:50:56;5.65;;;4.20;;
13048;SDS011;6591;51.446;5.404;2023-07-20T01:53:35;6.65;;;4.20;;
13048;SDS011;6591;51.446;5.404;2023-07-20T01:56:16;6.63;;;3.83;;
13048;SDS011;6591;51.446;5.404;2023-07-20T01:58:52;5.18;;;4.25;;
13048;SDS011;6591;51.446;5.404;2023-07-20T02:01:23;5.88;;;4.22;;
13048;SDS011;6591;51.446;5.404;2023-07-20T02:03:58;6.10;;;4.00;;
13048;SDS011;6591;51.446;5.404;2023-07-20T02:06:25;5.40;;;4.32;;
13048;SDS011;6591;51.446;5.404;2023-07-20T02:08:57;6.70;;;4.45;;
13048;SDS011;6591;51.446;5.404;2023-07-20T02:11:24;6.38;;;4.47;;
13048;SDS011;6591;51.446;5.404;2023-07-20T02:13:51;6.47;;;4.43;;
13048;SDS011;6591;51.446;5.404;2023-07-20T02:16:28;7.43;;;4.97;;
13048;SDS011;6591;51.446;5.404;2023-07-20T02:18:56;7.50;;;5.18;;
13048;SDS011;6591;51.446;5.404;2023-07-20T02:21:26;10.98;;;5.50;;
13048;SDS011;6591;51.446;5.404;2023-07-20T02:24:03;7.00;;;5.07;;
13048;SDS011;6591;51.446;5.404;2023-07-20T02:26:31;7.45;;;5.38;;
13048;SDS011;6591;51.446;5.404;2023-07-20T02:28:58;5.10;;;4.18;;
13048;SDS011;6591;51.446;5.404;2023-07-20T02:31:25;7.05;;;5.35;;
13048;SDS011;6591;51.446;5.404;2023-07-20T02:33:52;8.63;;;5.85;;
13048;SDS011;6591;51.446;5.404;2023-07-20T02:36:19;6.75;;;5.13;;
13048;SDS011;6591;51.446;5.404;2023-07-20T02:38:49;8.30;;;5.85;;
13048;SDS011;6591;51.446;5.404;2023-07-20T02:41:16;7.53;;;5.40;;
13048;SDS011;6591;51.446;5.404;2023-07-20T02:43:43;6.85;;;5.47;;
13048;SDS011;6591;51.446;5.404;2023-07-20T02:46:10;8.93;;;5.65;;
13048;SDS011;6591;51.446;5.404;2023-07-20T02:48:38;6.82;;;5.80;;
13048;SDS011;6591;51.446;5.404;2023-07-20T02:51:08;9.95;;;5.80;;
13048;SDS011;6591;51.446;5.404;2023-07-20T02:53:35;5.95;;;5.35;;
13048;SDS011;6591;51.446;5.404;2023-07-20T02:56:02;8.02;;;5.63;;
13048;SDS011;6591;51.446;5.404;2023-07-20T02:58:29;8.02;;;6.13;;
13048;SDS011;6591;51.446;5.404;2023-07-20T03:00:57;6.80;;;5.20;;
13048;SDS011;6591;51.446;5.404;2023-07-20T03:03:24;7.93;;;6.03;;
13048;SDS011;6591;51.446;5.404;2023-07-20T03:05:51;9.50;;;5.53;;
13048;SDS011;6591;51.446;5.404;2023-07-20T03:08:21;7.90;;;6.00;;
13048;SDS011;6591;51.446;5.404;2023-07-20T03:10:48;7.82;;;5.70;;
13048;SDS011;6591;51.446;5.404;2023-07-20T03:13:18;6.95;;;5.60;;
13048;SDS011;6591;51.446;5.404;2023-07-20T03:15:50;7.18;;;5.95;;
13048;SDS011;6591;51.446;5.404;2023-07-20T03:18:22;7.53;;;6.70;;
13048;SDS011;6591;51.446;5.404;2023-07-20T03:20:49;8.60;;;6.10;;
13048;SDS011;6591;51.446;5.404;2023-07-20T03:23:22;9.20;;;6.75;;
13048;SDS011;6591;51.446;5.404;2023-07-20T03:25:56;8.90;;;6.57;;
13048;SDS011;6591;51.446;5.404;2023-07-20T03:28:27;8.60;;;6.30;;
13048;SDS011;6591;51.446;5.404;2023-07-20T03:31:09;10.25;;;6.78;;
13048;SDS011;6591;51.446;5.404;2023-07-20T03:33:42;8.07;;;6.50;;
13048;SDS011;6591;51.446;5.404;2023-07-20T03:36:09;9.75;;;6.90;;
13048;SDS011;6591;51.446;5.404;2023-07-20T03:38:37;9.27;;;7.00;;
13048;SDS011;6591;51.446;5.404;2023-07-20T03:41:05;9.13;;;7.35;;
13048;SDS011;6591;51.446;5.404;2023-07-20T03:43:43;8.65;;;7.68;;
13048;SDS011;6591;51.446;5.404;2023-07-20T03:46:15;10.00;;;8.27;;
13048;SDS011;6591;51.446;5.404;2023-07-20T03:48:44;7.50;;;6.80;;
13048;SDS011;6591;51.446;5.404;2023-07-20T03:51:12;10.75;;;8.40;;
13048;SDS011;6591;51.446;5.404;2023-07-20T03:53:42;8.80;;;7.93;;
13048;SDS011;6591;51.446;5.404;2023-07-20T03:56:21;8.25;;;7.45;;
13048;SDS011;6591;51.446;5.404;2023-07-20T03:58:49;9.52;;;8.50;;
13048;SDS011;6591;51.446;5.404;2023-07-20T04:01:16;9.40;;;7.95;;
13048;SDS011;6591;51.446;5.404;2023-07-20T04:03:44;9.48;;;7.90;;
13048;SDS011;6591;51.446;5.404;2023-07-20T04:06:15;8.68;;;7.78;;
13048;SDS011;6591;51.446;5.404;2023-07-20T04:08:44;9.90;;;8.55;;
13048;SDS011;6591;51.446;5.404;2023-07-20T04:11:13;8.88;;;7.95;;
13048;SDS011;6591;51.446;5.404;2023-07-20T04:13:40;9.45;;;7.97;;
13048;SDS011;6591;51.446;5.404;2023-07-20T04:16:07;8.85;;;7.40;;
13048;SDS011;6591;51.446;5.404;2023-07-20T04:18:34;7.88;;;7.07;;
13048;SDS011;6591;51.446;5.404;2023-07-20T04:21:01;7.88;;;7.07;;
13048;SDS011;6591;51.446;5.404;2023-07-20T04:23:29;8.15;;;6.72;;
13048;SDS011;6591;51.446;5.404;2023-07-20T04:25:56;8.00;;;7.30;;
13048;SDS011;6591;51.446;5.404;2023-07-20T04:28:24;6.82;;;5.97;;
13048;SDS011;6591;51.446;5.404;2023-07-20T04:30:51;7.07;;;6.20;;
13048;SDS011;6591;51.446;5.404;2023-07-20T04:33:20;6.10;;;5.47;;
13048;SDS011;6591;51.446;5.404;2023-07-20T04:38:30;6.50;;;5.60;;
13048;SDS011;6591;51.446;5.404;2023-07-20T04:41:11;6.00;;;5.40;;
13048;SDS011;6591;51.446;5.404;2023-07-20T04:43:42;6.20;;;5.05;;
13048;SDS011;6591;51.446;5.404;2023-07-20T04:46:12;6.43;;;4.97;;
13048;SDS011;6591;51.446;5.404;2023-07-20T04:48:41;6.18;;;5.03;;
13048;SDS011;6591;51.446;5.404;2023-07-20T04:51:08;5.32;;;4.80;;
13048;SDS011;6591;51.446;5.404;2023-07-20T04:53:37;5.15;;;4.65;;
13048;SDS011;6591;51.446;5.404;2023-07-20T04:56:06;5.03;;;4.47;;
13048;SDS011;6591;51.446;5.404;2023-07-20T04:58:34;5.40;;;3.78;;
13048;SDS011;6591;51.446;5.404;2023-07-20T05:01:01;5.53;;;3.75;;
13048;SDS011;6591;51.446;5.404;2023-07-20T05:03:30;3.88;;;3.50;;
13048;SDS011;6591;51.446;5.404;2023-07-20T05:05:58;4.10;;;3.70;;
13048;SDS011;6591;51.446;5.404;2023-07-20T05:08:25;4.75;;;3.70;;
13048;SDS011;6591;51.446;5.404;2023-07-20T05:10:53;4.70;;;3.38;;
13048;SDS011;6591;51.446;5.404;2023-07-20T05:13:28;4.50;;;3.50;;
13048;SDS011;6591;51.446;5.404;2023-07-20T05:15:56;4.93;;;3.53;;
13048;SDS011;6591;51.446;5.404;2023-07-20T05:18:23;5.15;;;4.10;;
13048;SDS011;6591;51.446;5.404;2023-07-20T05:20:52;8.55;;;4.80;;
13048;SDS011;6591;51.446;5.404;2023-07-20T05:23:25;4.90;;;3.92;;
13048;SDS011;6591;51.446;5.404;2023-07-20T05:25:56;5.13;;;4.55;;
13048;SDS011;6591;51.446;5.404;2023-07-20T05:28:25;5.18;;;4.70;;
13048;SDS011;6591;51.446;5.404;2023-07-20T05:30:54;6.03;;;5.43;;
13048;SDS011;6591;51.446;5.404;2023-07-20T05:33:22;5.57;;;4.93;;
13048;SDS011;6591;51.446;5.404;2023-07-20T05:35:49;5.82;;;5.22;;
13048;SDS011;6591;51.446;5.404;2023-07-20T05:38:16;6.80;;;6.10;;
13048;SDS011;6591;51.446;5.404;2023-07-20T05:40:44;7.97;;;6.85;;
13048;SDS011;6591;51.446;5.404;2023-07-20T05:43:12;6.60;;;6.00;;
13048;SDS011;6591;51.446;5.404;2023-07-20T05:45:44;6.63;;;6.03;;
13048;SDS011;6591;51.446;5.404;2023-07-20T05:48:12;6.05;;;5.45;;
13048;SDS011;6591;51.446;5.404;2023-07-20T05:50:42;7.07;;;6.38;;
13048;SDS011;6591;51.446;5.404;2023-07-20T05:53:11;5.55;;;5.05;;
13048;SDS011;6591;51.446;5.404;2023-07-20T05:55:38;5.38;;;4.35;;
13048;SDS011;6591;51.446;5.404;2023-07-20T05:58:07;5.63;;;5.00;;
13048;SDS011;6591;51.446;5.404;2023-07-20T06:00:34;4.97;;;3.97;;
13048;SDS011;6591;51.446;5.404;2023-07-20T06:03:01;4.60;;;4.10;;
13048;SDS011;6591;51.446;5.404;2023-07-20T06:05:30;4.93;;;3.75;;
13048;SDS011;6591;51.446;5.404;2023-07-20T06:07:59;4.60;;;3.92;;
13048;SDS011;6591;51.446;5.404;2023-07-20T06:10:27;4.30;;;3.90;;
13048;SDS011;6591;51.446;5.404;2023-07-20T06:12:54;3.83;;;3.42;;
13048;SDS011;6591;51.446;5.404;2023-07-20T06:15:30;3.75;;;3.42;;
13048;SDS011;6591;51.446;5.404;2023-07-20T06:18:01;3.80;;;3.40;;
13048;SDS011;6591;51.446;5.404;2023-07-20T06:20:30;3.33;;;2.33;;
13048;SDS011;6591;51.446;5.404;2023-07-20T06:22:57;3.15;;;2.85;;
13048;SDS011;6591;51.446;5.404;2023-07-20T06:25:24;2.70;;;2.50;;
13048;SDS011;6591;51.446;5.404;2023-07-20T06:27:51;4.10;;;2.35;;
13048;SDS011;6591;51.446;5.404;2023-07-20T06:30:20;3.25;;;2.20;;
13048;SDS011;6591;51.446;5.404;2023-07-20T06:32:48;2.67;;;2.30;;
13048;SDS011;6591;51.446;5.404;2023-07-20T06:35:15;2.50;;;2.10;;
13048;SDS011;6591;51.446;5.404;2023-07-20T06:37:43;2.83;;;2.53;;
13048;SDS011;6591;51.446;5.404;2023-07-20T06:40:11;3.38;;;2.80;;
13048;SDS011;6591;51.446;5.404;2023-07-20T06:42:41;2.70;;;2.50;;
13048;SDS011;6591;51.446;5.404;2023-07-20T06:45:11;2.60;;;2.40;;
13048;SDS011;6591;51.446;5.404;2023-07-20T06:47:39;2.53;;;2.20;;
13048;SDS011;6591;51.446;5.404;2023-07-20T06:50:06;2.60;;;2.40;;
13048;SDS011;6591;51.446;5.404;2023-07-20T06:52:34;2.40;;;2.20;;
13048;SDS011;6591;51.446;5.404;2023-07-20T06:55:02;2.58;;;2.03;;
13048;SDS011;6591;51.446;5.404;2023-07-20T06:57:31;2.30;;;2.10;;
13048;SDS011;6591;51.446;5.404;2023-07-20T06:59:59;2.28;;;2.03;;
13048;SDS011;6591;51.446;5.404;2023-07-20T07:02:26;2.20;;;2.00;;
13048;SDS011;6591;51.446;5.404;2023-07-20T07:04:53;2.15;;;1.83;;
13048;SDS011;6591;51.446;5.404;2023-07-20T07:07:25;1.90;;;1.60;;
13048;SDS011;6591;51.446;5.404;2023-07-20T07:09:53;1.77;;;1.40;;
13048;SDS011;6591;51.446;5.404;2023-07-20T07:12:21;1.92;;;1.70;;
13048;SDS011;6591;51.446;5.404;2023-07-20T07:14:48;1.98;;;1.55;;
13048;SDS011;6591;51.446;5.404;2023-07-20T07:17:15;1.75;;;1.50;;
13048;SDS011;6591;51.446;5.404;2023-07-20T07:19:45;2.17;;;1.48;;
13048;SDS011;6591;51.446;5.404;2023-07-20T07:22:15;1.30;;;1.20;;
13048;SDS011;6591;51.446;5.404;2023-07-20T07:24:42;1.55;;;1.45;;
13048;SDS011;6591;51.446;5.404;2023-07-20T07:27:09;1.27;;;1.17;;
13048;SDS011;6591;51.446;5.404;2023-07-20T07:29:37;3.50;;;1.40;;
13048;SDS011;6591;51.446;5.404;2023-07-20T07:32:04;2.05;;;1.50;;
13048;SDS011;6591;51.446;5.404;2023-07-20T07:34:32;1.52;;;1.30;;
13048;SDS011;6591;51.446;5.404;2023-07-20T07:37:01;2.15;;;1.75;;
13048;SDS011;6591;51.446;5.404;2023-07-20T07:39:30;2.08;;;1.60;;
13048;SDS011;6591;51.446;5.404;2023-07-20T07:42:01;1.23;;;1.00;;
13048;SDS011;6591;51.446;5.404;2023-07-20T07:44:28;1.58;;;1.10;;
13048;SDS011;6591;51.446;5.404;2023-07-20T07:46:55;1.10;;;1.10;;
13048;SDS011;6591;51.446;5.404;2023-07-20T07:49:22;1.50;;;1.33;;
13048;SDS011;6591;51.446;5.404;2023-07-20T07:51:50;1.67;;;1.58;;
13048;SDS011;6591;51.446;5.404;2023-07-20T07:54:18;1.40;;;1.10;;
13048;SDS011;6591;51.446;5.404;2023-07-20T07:56:45;1.60;;;1.15;;
13048;SDS011;6591;51.446;5.404;2023-07-20T07:59:12;1.42;;;1.05;;
13048;SDS011;6591;51.446;5.404;2023-07-20T08:01:39;0.98;;;0.98;;
13048;SDS011;6591;51.446;5.404;2023-07-20T08:04:06;1.00;;;0.90;;
13048;SDS011;6591;51.446;5.404;2023-07-20T08:06:33;1.08;;;0.90;;
13048;SDS011;6591;51.446;5.404;2023-07-20T08:09:00;0.85;;;0.75;;
13048;SDS011;6591;51.446;5.404;2023-07-20T08:11:28;0.95;;;0.90;;
13048;SDS011;6591;51.446;5.404;2023-07-20T08:13:57;3.20;;;0.85;;
13048;SDS011;6591;51.446;5.404;2023-07-20T08:16:24;1.63;;;1.10;;
13048;SDS011;6591;51.446;5.404;2023-07-20T08:18:51;2.47;;;0.80;;
13048;SDS011;6591;51.446;5.404;2023-07-20T08:21:19;1.10;;;0.80;;
13048;SDS011;6591;51.446;5.404;2023-07-20T08:23:46;0.77;;;0.63;;
13048;SDS011;6591;51.446;5.404;2023-07-20T08:26:13;0.80;;;0.75;;
13048;SDS011;6591;51.446;5.404;2023-07-20T08:28:42;0.52;;;0.52;;
13048;SDS011;6591;51.446;5.404;2023-07-20T08:31:11;1.17;;;1.05;;
13048;SDS011;6591;51.446;5.404;2023-07-20T08:33:38;2.00;;;0.80;;
13048;SDS011;6591;51.446;5.404;2023-07-20T08:36:06;0.90;;;0.80;;
13048;SDS011;6591;51.446;5.404;2023-07-20T08:38:37;1.42;;;0.90;;
13048;SDS011;6591;51.446;5.404;2023-07-20T08:41:04;0.75;;;0.75;;
13048;SDS011;6591;51.446;5.404;2023-07-20T08:43:32;0.82;;;0.82;;
13048;SDS011;6591;51.446;5.404;2023-07-20T08:46:01;1.20;;;1.00;;
13048;SDS011;6591;51.446;5.404;2023-07-20T08:48:30;0.60;;;0.60;;
13048;SDS011;6591;51.446;5.404;2023-07-20T08:50:58;0.88;;;0.70;;
13048;SDS011;6591;51.446;5.404;2023-07-20T08:53:27;0.82;;;0.82;;
13048;SDS011;6591;51.446;5.404;2023-07-20T08:55:58;2.20;;;0.60;;
13048;SDS011;6591;51.446;5.404;2023-07-20T08:58:28;0.70;;;0.70;;
13048;SDS011;6591;51.446;5.404;2023-07-20T09:00:56;1.15;;;0.93;;
13048;SDS011;6591;51.446;5.404;2023-07-20T09:03:28;2.22;;;0.82;;
13048;SDS011;6591;51.446;5.404;2023-07-20T09:05:55;0.70;;;0.70;;
13048;SDS011;6591;51.446;5.404;2023-07-20T09:08:22;0.60;;;0.60;;
13048;SDS011;6591;51.446;5.404;2023-07-20T09:10:54;1.33;;;0.82;;
13048;SDS011;6591;51.446;5.404;2023-07-20T09:13:21;0.80;;;0.60;;
13048;SDS011;6591;51.446;5.404;2023-07-20T09:15:54;0.73;;;0.73;;
13048;SDS011;6591;51.446;5.404;2023-07-20T09:18:26;0.68;;;0.68;;
13048;SDS011;6591;51.446;5.404;2023-07-20T09:21:03;0.40;;;0.40;;
13048;SDS011;6591;51.446;5.404;2023-07-20T09:23:36;0.70;;;0.60;;
13048;SDS011;6591;51.446;5.404;2023-07-20T09:26:10;0.63;;;0.50;;
13048;SDS011;6591;51.446;5.404;2023-07-20T09:28:42;0.98;;;0.63;;
13048;SDS011;6591;51.446;5.404;2023-07-20T09:31:16;1.10;;;0.60;;
13048;SDS011;6591;51.446;5.404;2023-07-20T09:33:46;0.93;;;0.63;;
13048;SDS011;6591;51.446;5.404;2023-07-20T09:36:17;0.70;;;0.70;;
13048;SDS011;6591;51.446;5.404;2023-07-20T09:39:04;0.47;;;0.47;;
13048;SDS011;6591;51.446;5.404;2023-07-20T09:41:39;0.75;;;0.52;;
13048;SDS011;6591;51.446;5.404;2023-07-20T09:44:15;1.00;;;0.57;;
13048;SDS011;6591;51.446;5.404;2023-07-20T09:46:46;0.90;;;0.70;;
13048;SDS011;6591;51.446;5.404;2023-07-20T09:49:18;1.02;;;0.70;;
13048;SDS011;6591;51.446;5.404;2023-07-20T09:51:48;0.82;;;0.82;;
13048;SDS011;6591;51.446;5.404;2023-07-20T09:54:16;0.90;;;0.70;;
13048;SDS011;6591;51.446;5.404;2023-07-20T09:56:46;1.08;;;0.70;;
13048;SDS011;6591;51.446;5.404;2023-07-20T09:59:15;1.65;;;0.60;;
13048;SDS011;6591;51.446;5.404;2023-07-20T10:01:42;0.43;;;0.43;;
13048;SDS011;6591;51.446;5.404;2023-07-20T10:04:12;0.65;;;0.52;;
13048;SDS011;6591;51.446;5.404;2023-07-20T10:06:43;0.73;;;0.73;;
13048;SDS011;6591;51.446;5.404;2023-07-20T10:09:15;1.88;;;0.93;;
13048;SDS011;6591;51.446;5.404;2023-07-20T10:11:45;1.58;;;0.70;;
13048;SDS011;6591;51.446;5.404;2023-07-20T10:14:38;1.15;;;0.60;;
13048;SDS011;6591;51.446;5.404;2023-07-20T10:17:15;0.65;;;0.50;;
13048;SDS011;6591;51.446;5.404;2023-07-20T10:19:46;0.50;;;0.50;;
13048;SDS011;6591;51.446;5.404;2023-07-20T10:22:24;0.70;;;0.70;;
13048;SDS011;6591;51.446;5.404;2023-07-20T10:24:53;2.20;;;0.90;;
13048;SDS011;6591;51.446;5.404;2023-07-20T10:27:23;0.90;;;0.68;;
13048;SDS011;6591;51.446;5.404;2023-07-20T10:29:51;0.50;;;0.50;;
13048;SDS011;6591;51.446;5.404;2023-07-20T10:32:21;0.68;;;0.55;;
13048;SDS011;6591;51.446;5.404;2023-07-20T10:34:52;1.00;;;0.80;;
13048;SDS011;6591;51.446;5.404;2023-07-20T10:40:26;1.33;;;0.80;;
13048;SDS011;6591;51.446;5.404;2023-07-20T10:44:08;0.60;;;0.60;;
13048;SDS011;6591;51.446;5.404;2023-07-20T10:46:43;1.00;;;0.73;;
13048;SDS011;6591;51.446;5.404;2023-07-20T10:49:23;0.70;;;0.70;;
13048;SDS011;6591;51.446;5.404;2023-07-20T10:51:56;0.57;;;0.57;;
13048;SDS011;6591;51.446;5.404;2023-07-20T10:56:54;0.70;;;0.70;;
13048;SDS011;6591;51.446;5.404;2023-07-20T11:02:10;0.55;;;0.55;;
13048;SDS011;6591;51.446;5.404;2023-07-20T11:04:40;1.15;;;0.90;;
13048;SDS011;6591;51.446;5.404;2023-07-20T11:07:15;0.70;;;0.70;;
13048;SDS011;6591;51.446;5.404;2023-07-20T11:10:15;0.75;;;0.60;;
13048;SDS011;6591;51.446;5.404;2023-07-20T11:16:03;0.70;;;0.70;;
13048;SDS011;6591;51.446;5.404;2023-07-20T11:18:33;0.90;;;0.82;;
13048;SDS011;6591;51.446;5.404;2023-07-20T11:21:07;1.70;;;0.80;;
13048;SDS011;6591;51.446;5.404;2023-07-20T11:23:37;1.95;;;0.88;;
13048;SDS011;6591;51.446;5.404;2023-07-20T11:26:05;2.13;;;0.80;;
13048;SDS011;6591;51.446;5.404;2023-07-20T11:28:33;1.60;;;0.75;;
13048;SDS011;6591;51.446;5.404;2023-07-20T11:31:01;0.90;;;0.73;;
13048;SDS011;6591;51.446;5.404;2023-07-20T11:33:28;0.70;;;0.70;;
13048;SDS011;6591;51.446;5.404;2023-07-20T11:35:55;0.80;;;0.80;;
13048;SDS011;6591;51.446;5.404;2023-07-20T11:38:23;0.93;;;0.80;;
13048;SDS011;6591;51.446;5.404;2023-07-20T11:40:51;1.08;;;0.80;;
13048;SDS011;6591;51.446;5.404;2023-07-20T11:43:18;0.65;;;0.65;;
13048;SDS011;6591;51.446;5.404;2023-07-20T11:45:49;0.70;;;0.70;;
13048;SDS011;6591;51.446;5.404;2023-07-20T11:48:17;0.98;;;0.88;;
13048;SDS011;6591;51.446;5.404;2023-07-20T11:50:44;0.80;;;0.80;;
13048;SDS011;6591;51.446;5.404;2023-07-20T11:53:11;0.95;;;0.90;;
13048;SDS011;6591;51.446;5.404;2023-07-20T11:55:42;0.73;;;0.73;;
13048;SDS011;6591;51.446;5.404;2023-07-20T11:58:09;0.70;;;0.70;;
13048;SDS011;6591;51.446;5.404;2023-07-20T12:00:38;0.68;;;0.68;;
13048;SDS011;6591;51.446;5.404;2023-07-20T12:03:09;0.63;;;0.63;;
13048;SDS011;6591;51.446;5.404;2023-07-20T12:05:39;1.73;;;0.82;;
13048;SDS011;6591;51.446;5.404;2023-07-20T12:08:26;0.90;;;0.70;;
13048;SDS011;6591;51.446;5.404;2023-07-20T12:10:53;0.73;;;0.70;;
13048;SDS011;6591;51.446;5.404;2023-07-20T12:13:20;1.00;;;0.90;;
13048;SDS011;6591;51.446;5.404;2023-07-20T12:15:47;1.40;;;0.70;;
13048;SDS011;6591;51.446;5.404;2023-07-20T12:18:14;1.08;;;0.80;;
13048;SDS011;6591;51.446;5.404;2023-07-20T12:20:42;1.10;;;1.00;;
13048;SDS011;6591;51.446;5.404;2023-07-20T12:23:12;1.52;;;0.90;;
13048;SDS011;6591;51.446;5.404;2023-07-20T12:25:46;1.65;;;0.80;;
13048;SDS011;6591;51.446;5.404;2023-07-20T12:28:15;0.80;;;0.80;;
13048;SDS011;6591;51.446;5.404;2023-07-20T12:30:46;0.80;;;0.80;;
13048;SDS011;6591;51.446;5.404;2023-07-20T12:33:22;0.80;;;0.80;;
13048;SDS011;6591;51.446;5.404;2023-07-20T12:35:50;1.50;;;0.80;;
13048;SDS011;6591;51.446;5.404;2023-07-20T12:38:28;0.93;;;0.90;;
13048;SDS011;6591;51.446;5.404;2023-07-20T12:41:19;1.13;;;0.80;;
13048;SDS011;6591;51.446;5.404;2023-07-20T12:44:01;1.75;;;0.98;;
13048;SDS011;6591;51.446;5.404;2023-07-20T12:46:29;0.80;;;0.80;;
13048;SDS011;6591;51.446;5.404;2023-07-20T12:49:01;1.55;;;1.10;;
13048;SDS011;6591;51.446;5.404;2023-07-20T12:51:31;3.13;;;0.80;;
13048;SDS011;6591;51.446;5.404;2023-07-20T12:54:01;1.33;;;0.90;;
13048;SDS011;6591;51.446;5.404;2023-07-20T12:56:29;0.68;;;0.68;;
13048;SDS011;6591;51.446;5.404;2023-07-20T12:59:07;1.88;;;0.93;;
13048;SDS011;6591;51.446;5.404;2023-07-20T13:01:37;0.80;;;0.80;;
13048;SDS011;6591;51.446;5.404;2023-07-20T13:04:10;1.40;;;0.90;;
13048;SDS011;6591;51.446;5.404;2023-07-20T13:06:42;2.10;;;0.88;;
13048;SDS011;6591;51.446;5.404;2023-07-20T13:09:13;1.38;;;1.10;;
13048;SDS011;6591;51.446;5.404;2023-07-20T13:11:44;1.13;;;1.05;;
13048;SDS011;6591;51.446;5.404;2023-07-20T13:14:12;0.88;;;0.88;;
13048;SDS011;6591;51.446;5.404;2023-07-20T13:16:39;0.77;;;0.77;;
13048;SDS011;6591;51.446;5.404;2023-07-20T13:19:06;1.13;;;1.05;;
13048;SDS011;6591;51.446;5.404;2023-07-20T13:21:33;3.63;;;1.10;;
13048;SDS011;6591;51.446;5.404;2023-07-20T13:24:01;1.00;;;1.00;;
13048;SDS011;6591;51.446;5.404;2023-07-20T13:26:30;0.95;;;0.95;;
13048;SDS011;6591;51.446;5.404;2023-07-20T13:28:57;1.25;;;1.17;;
13048;SDS011;6591;51.446;5.404;2023-07-20T13:31:24;1.00;;;0.95;;
13048;SDS011;6591;51.446;5.404;2023-07-20T13:33:53;1.30;;;1.20;;
13048;SDS011;6591;51.446;5.404;2023-07-20T13:36:25;1.17;;;1.08;;
13048;SDS011;6591;51.446;5.404;2023-07-20T13:38:52;1.48;;;1.13;;
13048;SDS011;6591;51.446;5.404;2023-07-20T13:41:20;1.00;;;1.00;;
13048;SDS011;6591;51.446;5.404;2023-07-20T13:43:48;1.45;;;1.05;;
13048;SDS011;6591;51.446;5.404;2023-07-20T13:46:20;1.00;;;0.93;;
13048;SDS011;6591;51.446;5.404;2023-07-20T13:48:56;1.20;;;1.10;;
13048;SDS011;6591;51.446;5.404;2023-07-20T13:51:24;0.82;;;0.82;;
13048;SDS011;6591;51.446;5.404;2023-07-20T13:54:06;1.40;;;1.05;;
13048;SDS011;6591;51.446;5.404;2023-07-20T13:56:37;2.58;;;1.35;;
13048;SDS011;6591;51.446;5.404;2023-07-20T13:59:22;1.10;;;0.98;;
13048;SDS011;6591;51.446;5.404;2023-07-20T14:01:51;1.10;;;1.00;;
13048;SDS011;6591;51.446;5.404;2023-07-20T14:04:39;1.48;;;1.30;;
13048;SDS011;6591;51.446;5.404;2023-07-20T14:07:08;2.58;;;1.23;;
13048;SDS011;6591;51.446;5.404;2023-07-20T14:09:36;1.40;;;1.30;;
13048;SDS011;6591;51.446;5.404;2023-07-20T14:12:24;1.23;;;1.13;;
13048;SDS011;6591;51.446;5.404;2023-07-20T14:14:51;1.15;;;1.10;;
13048;SDS011;6591;51.446;5.404;2023-07-20T14:17:22;2.88;;;1.17;;
13048;SDS011;6591;51.446;5.404;2023-07-20T14:19:58;0.88;;;0.82;;
13048;SDS011;6591;51.446;5.404;2023-07-20T14:22:25;1.40;;;1.20;;
13048;SDS011;6591;51.446;5.404;2023-07-20T14:24:53;0.98;;;0.93;;
13048;SDS011;6591;51.446;5.404;2023-07-20T14:27:21;0.93;;;0.85;;
13048;SDS011;6591;51.446;5.404;2023-07-20T14:29:48;1.80;;;1.08;;
13048;SDS011;6591;51.446;5.404;2023-07-20T14:32:15;1.25;;;0.88;;
13048;SDS011;6591;51.446;5.404;2023-07-20T14:34:42;2.22;;;1.50;;
13048;SDS011;6591;51.446;5.404;2023-07-20T14:37:10;2.25;;;1.10;;
13048;SDS011;6591;51.446;5.404;2023-07-20T14:39:40;0.95;;;0.95;;
13048;SDS011;6591;51.446;5.404;2023-07-20T14:42:07;0.95;;;0.95;;
13048;SDS011;6591;51.446;5.404;2023-07-20T14:44:34;0.82;;;0.80;;
13048;SDS011;6591;51.446;5.404;2023-07-20T14:47:03;1.77;;;0.80;;
13048;SDS011;6591;51.446;5.404;2023-07-20T14:49:40;1.08;;;0.90;;
13048;SDS011;6591;51.446;5.404;2023-07-20T14:52:08;2.28;;;0.75;;
13048;SDS011;6591;51.446;5.404;2023-07-20T14:54:38;0.98;;;0.82;;
13048;SDS011;6591;51.446;5.404;2023-07-20T14:57:05;0.88;;;0.80;;
13048;SDS011;6591;51.446;5.404;2023-07-20T14:59:40;1.52;;;0.85;;
13048;SDS011;6591;51.446;5.404;2023-07-20T15:02:11;0.82;;;0.80;;
13048;SDS011;6591;51.446;5.404;2023-07-20T15:04:48;1.40;;;0.88;;
13048;SDS011;6591;51.446;5.404;2023-07-20T15:07:20;1.00;;;0.80;;
13048;SDS011;6591;51.446;5.404;2023-07-20T15:09:48;0.93;;;0.90;;
13048;SDS011;6591;51.446;5.404;2023-07-20T15:12:15;0.80;;;0.70;;
13048;SDS011;6591;51.446;5.404;2023-07-20T15:14:43;0.95;;;0.90;;
13048;SDS011;6591;51.446;5.404;2023-07-20T15:17:45;1.42;;;0.90;;
13048;SDS011;6591;51.446;5.404;2023-07-20T15:20:12;0.80;;;0.80;;
13048;SDS011;6591;51.446;5.404;2023-07-20T15:22:40;1.00;;;0.90;;
13048;SDS011;6591;51.446;5.404;2023-07-20T15:25:15;1.35;;;1.20;;
13048;SDS011;6591;51.446;5.404;2023-07-20T15:27:42;2.85;;;1.00;;
13048;SDS011;6591;51.446;5.404;2023-07-20T15:30:16;0.80;;;0.80;;
13048;SDS011;6591;51.446;5.404;2023-07-20T15:32:51;1.40;;;1.30;;
13048;SDS011;6591;51.446;5.404;2023-07-20T15:35:21;1.50;;;1.27;;
13048;SDS011;6591;51.446;5.404;2023-07-20T15:37:48;1.25;;;1.00;;
13048;SDS011;6591;51.446;5.404;2023-07-20T15:40:15;0.98;;;0.98;;
13048;SDS011;6591;51.446;5.404;2023-07-20T15:42:43;1.00;;;0.90;;
13048;SDS011;6591;51.446;5.404;2023-07-20T15:45:18;1.00;;;1.00;;
13048;SDS011;6591;51.446;5.404;2023-07-20T15:47:49;1.40;;;1.10;;